sensor_id;sensor_type;location;lat;lon;timestamp;temperature;humidity
84435;SHT30;74664;45.620;5.138;2024-01-15T00:01:57;5.74;69.02
84435;SHT30;74664;45.620;5.138;2024-01-15T00:04:23;5.77;69.08
84435;SHT30;74664;45.620;5.138;2024-01-15T00:06:50;5.78;69.08
84435;SHT30;74664;45.620;5.138;2024-01-15T00:09:17;5.78;69.05
84435;SHT30;74664;45.620;5.138;2024-01-15T00:11:44;5.81;69.00
84435;SHT30;74664;45.620;5.138;2024-01-15T00:14:11;5.79;68.91
84435;SHT30;74664;45.620;5.138;2024-01-15T00:16:41;5.79;69.02
84435;SHT30;74664;45.620;5.138;2024-01-15T00:19:10;5.83;68.98
84435;SHT30;74664;45.620;5.138;2024-01-15T00:21:37;5.84;68.90
84435;SHT30;74664;45.620;5.138;2024-01-15T00:24:04;5.83;68.94
84435;SHT30;74664;45.620;5.138;2024-01-15T00:26:30;5.78;68.93
84435;SHT30;74664;45.620;5.138;2024-01-15T00:28:57;5.77;68.97
84435;SHT30;74664;45.620;5.138;2024-01-15T00:31:24;5.78;68.90
84435;SHT30;74664;45.620;5.138;2024-01-15T00:33:52;5.79;68.86
84435;SHT30;74664;45.620;5.138;2024-01-15T00:36:19;5.77;68.86
84435;SHT30;74664;45.620;5.138;2024-01-15T00:38:46;5.75;68.85
84435;SHT30;74664;45.620;5.138;2024-01-15T00:41:13;5.73;68.85
84435;SHT30;74664;45.620;5.138;2024-01-15T00:43:43;5.73;68.84
84435;SHT30;74664;45.620;5.138;2024-01-15T00:46:10;5.68;68.89
84435;SHT30;74664;45.620;5.138;2024-01-15T00:48:37;5.71;68.95
84435;SHT30;74664;45.620;5.138;2024-01-15T00:51:05;5.68;69.07
84435;SHT30;74664;45.620;5.138;2024-01-15T00:53:32;5.68;69.07
84435;SHT30;74664;45.620;5.138;2024-01-15T00:55:59;5.70;69.06
84435;SHT30;74664;45.620;5.138;2024-01-15T00:58:26;5.68;69.15
84435;SHT30;74664;45.620;5.138;2024-01-15T01:00:53;5.71;69.05
84435;SHT30;74664;45.620;5.138;2024-01-15T01:03:19;5.73;69.02
84435;SHT30;74664;45.620;5.138;2024-01-15T01:05:48;5.74;69.08
84435;SHT30;74664;45.620;5.138;2024-01-15T01:08:16;5.74;69.07
84435;SHT30;74664;45.620;5.138;2024-01-15T01:10:43;5.77;68.95
84435;SHT30;74664;45.620;5.138;2024-01-15T01:13:10;5.78;68.89
84435;SHT30;74664;45.620;5.138;2024-01-15T01:15:36;5.78;68.96
84435;SHT30;74664;45.620;5.138;2024-01-15T01:18:04;5.79;69.04
84435;SHT30;74664;45.620;5.138;2024-01-15T01:20:31;5.81;69.02
84435;SHT30;74664;45.620;5.138;2024-01-15T01:22:58;5.77;69.03
84435;SHT30;74664;45.620;5.138;2024-01-15T01:25:26;5.75;69.09
84435;SHT30;74664;45.620;5.138;2024-01-15T01:27:53;5.75;69.09
84435;SHT30;74664;45.620;5.138;2024-01-15T01:30:20;5.77;69.16
84435;SHT30;74664;45.620;5.138;2024-01-15T01:32:46;5.77;69.17
84435;SHT30;74664;45.620;5.138;2024-01-15T01:35:13;5.79;69.14
84435;SHT30;74664;45.620;5.138;2024-01-15T01:37:40;5.77;69.08
84435;SHT30;74664;45.620;5.138;2024-01-15T01:40:08;5.78;69.02
84435;SHT30;74664;45.620;5.138;2024-01-15T01:42:36;5.78;69.02
84435;SHT30;74664;45.620;5.138;2024-01-15T01:45:05;5.79;68.96
84435;SHT30;74664;45.620;5.138;2024-01-15T01:47:32;5.77;68.95
84435;SHT30;74664;45.620;5.138;2024-01-15T01:49:59;5.79;68.94
84435;SHT30;74664;45.620;5.138;2024-01-15T01:52:26;5.81;68.92
84435;SHT30;74664;45.620;5.138;2024-01-15T01:54:54;5.79;68.90
84435;SHT30;74664;45.620;5.138;2024-01-15T01:57:22;5.77;68.75
84435;SHT30;74664;45.620;5.138;2024-01-15T01:59:50;5.68;68.84
84435;SHT30;74664;45.620;5.138;2024-01-15T02:02:18;5.63;68.88
84435;SHT30;74664;45.620;5.138;2024-01-15T02:04:46;5.56;68.92
84435;SHT30;74664;45.620;5.138;2024-01-15T02:07:13;5.51;69.16
84435;SHT30;74664;45.620;5.138;2024-01-15T02:09:39;5.51;69.18
84435;SHT30;74664;45.620;5.138;2024-01-15T02:12:06;5.48;69.23
84435;SHT30;74664;45.620;5.138;2024-01-15T02:14:33;5.47;69.33
84435;SHT30;74664;45.620;5.138;2024-01-15T02:17:01;5.46;69.50
84435;SHT30;74664;45.620;5.138;2024-01-15T02:19:28;5.51;69.53
84435;SHT30;74664;45.620;5.138;2024-01-15T02:21:55;5.51;69.54
84435;SHT30;74664;45.620;5.138;2024-01-15T02:24:23;5.51;69.58
84435;SHT30;74664;45.620;5.138;2024-01-15T02:26:50;5.51;69.53
84435;SHT30;74664;45.620;5.138;2024-01-15T02:29:17;5.56;69.54
84435;SHT30;74664;45.620;5.138;2024-01-15T02:31:47;5.57;69.71
84435;SHT30;74664;45.620;5.138;2024-01-15T02:34:13;5.61;69.66
84435;SHT30;74664;45.620;5.138;2024-01-15T02:36:40;5.61;69.57
84435;SHT30;74664;45.620;5.138;2024-01-15T02:39:06;5.60;69.53
84435;SHT30;74664;45.620;5.138;2024-01-15T02:41:36;5.63;69.45
84435;SHT30;74664;45.620;5.138;2024-01-15T02:44:03;5.64;69.41
84435;SHT30;74664;45.620;5.138;2024-01-15T02:46:30;5.66;69.44
84435;SHT30;74664;45.620;5.138;2024-01-15T02:48:56;5.67;69.34
84435;SHT30;74664;45.620;5.138;2024-01-15T02:51:23;5.67;69.31
84435;SHT30;74664;45.620;5.138;2024-01-15T02:53:50;5.66;69.28
84435;SHT30;74664;45.620;5.138;2024-01-15T02:56:16;5.64;69.42
84435;SHT30;74664;45.620;5.138;2024-01-15T02:58:44;5.66;69.40
84435;SHT30;74664;45.620;5.138;2024-01-15T03:01:12;5.68;69.37
84435;SHT30;74664;45.620;5.138;2024-01-15T03:03:39;5.67;69.36
84435;SHT30;74664;45.620;5.138;2024-01-15T03:06:06;5.70;69.48
84435;SHT30;74664;45.620;5.138;2024-01-15T03:08:33;5.64;69.42
84435;SHT30;74664;45.620;5.138;2024-01-15T03:11:01;5.70;69.39
84435;SHT30;74664;45.620;5.138;2024-01-15T03:13:27;5.68;69.45
84435;SHT30;74664;45.620;5.138;2024-01-15T03:15:55;5.70;69.50
84435;SHT30;74664;45.620;5.138;2024-01-15T03:18:22;5.73;69.40
84435;SHT30;74664;45.620;5.138;2024-01-15T03:20:49;5.70;69.38
84435;SHT30;74664;45.620;5.138;2024-01-15T03:23:15;5.70;69.40
84435;SHT30;74664;45.620;5.138;2024-01-15T03:25:42;5.68;69.50
84435;SHT30;74664;45.620;5.138;2024-01-15T03:28:09;5.71;69.45
84435;SHT30;74664;45.620;5.138;2024-01-15T03:30:36;5.70;69.45
84435;SHT30;74664;45.620;5.138;2024-01-15T03:33:05;5.73;69.43
84435;SHT30;74664;45.620;5.138;2024-01-15T03:35:31;5.71;69.42
84435;SHT30;74664;45.620;5.138;2024-01-15T03:37:58;5.75;69.46
84435;SHT30;74664;45.620;5.138;2024-01-15T03:40:25;5.73;69.50
84435;SHT30;74664;45.620;5.138;2024-01-15T03:42:52;5.73;69.42
84435;SHT30;74664;45.620;5.138;2024-01-15T03:45:19;5.74;69.34
84435;SHT30;74664;45.620;5.138;2024-01-15T03:47:46;5.73;69.30
84435;SHT30;74664;45.620;5.138;2024-01-15T03:50:16;5.73;69.38
84435;SHT30;74664;45.620;5.138;2024-01-15T03:52:43;5.74;69.38
84435;SHT30;74664;45.620;5.138;2024-01-15T03:55:10;5.75;69.37
84435;SHT30;74664;45.620;5.138;2024-01-15T03:57:37;5.75;69.31
84435;SHT30;74664;45.620;5.138;2024-01-15T04:00:05;5.77;69.35
84435;SHT30;74664;45.620;5.138;2024-01-15T04:02:32;5.77;69.42
84435;SHT30;74664;45.620;5.138;2024-01-15T04:04:58;5.75;69.25
84435;SHT30;74664;45.620;5.138;2024-01-15T04:07:26;5.78;69.22
84435;SHT30;74664;45.620;5.138;2024-01-15T04:09:53;5.78;69.27
84435;SHT30;74664;45.620;5.138;2024-01-15T04:12:20;5.77;69.26
84435;SHT30;74664;45.620;5.138;2024-01-15T04:14:47;5.75;69.15
84435;SHT30;74664;45.620;5.138;2024-01-15T04:17:16;5.74;69.29
84435;SHT30;74664;45.620;5.138;2024-01-15T04:19:43;5.68;69.33
84435;SHT30;74664;45.620;5.138;2024-01-15T04:22:10;5.66;69.40
84435;SHT30;74664;45.620;5.138;2024-01-15T04:24:38;5.66;69.49
84435;SHT30;74664;45.620;5.138;2024-01-15T04:27:05;5.67;69.54
84435;SHT30;74664;45.620;5.138;2024-01-15T04:29:32;5.63;69.60
84435;SHT30;74664;45.620;5.138;2024-01-15T04:31:59;5.66;69.62
84435;SHT30;74664;45.620;5.138;2024-01-15T04:34:26;5.64;69.56
84435;SHT30;74664;45.620;5.138;2024-01-15T04:36:52;5.64;69.59
84435;SHT30;74664;45.620;5.138;2024-01-15T04:39:19;5.64;69.59
84435;SHT30;74664;45.620;5.138;2024-01-15T04:41:47;5.64;69.62
84435;SHT30;74664;45.620;5.138;2024-01-15T04:44:14;5.68;69.60
84435;SHT30;74664;45.620;5.138;2024-01-15T04:46:41;5.67;69.52
84435;SHT30;74664;45.620;5.138;2024-01-15T04:49:09;5.68;69.54
84435;SHT30;74664;45.620;5.138;2024-01-15T04:51:36;5.68;69.64
84435;SHT30;74664;45.620;5.138;2024-01-15T04:54:03;5.67;69.71
84435;SHT30;74664;45.620;5.138;2024-01-15T04:56:30;5.68;69.57
84435;SHT30;74664;45.620;5.138;2024-01-15T04:58:58;5.68;69.60
84435;SHT30;74664;45.620;5.138;2024-01-15T05:01:29;5.66;69.73
84435;SHT30;74664;45.620;5.138;2024-01-15T05:03:56;5.70;69.82
84435;SHT30;74664;45.620;5.138;2024-01-15T05:06:23;5.70;69.88
84435;SHT30;74664;45.620;5.138;2024-01-15T05:08:50;5.68;69.91
84435;SHT30;74664;45.620;5.138;2024-01-15T05:11:16;5.71;69.86
84435;SHT30;74664;45.620;5.138;2024-01-15T05:13:43;5.71;69.92
84435;SHT30;74664;45.620;5.138;2024-01-15T05:16:11;5.75;69.99
84435;SHT30;74664;45.620;5.138;2024-01-15T05:18:37;5.73;70.07
84435;SHT30;74664;45.620;5.138;2024-01-15T05:21:04;5.73;70.05
84435;SHT30;74664;45.620;5.138;2024-01-15T05:23:31;5.75;70.03
84435;SHT30;74664;45.620;5.138;2024-01-15T05:25:58;5.78;70.09
84435;SHT30;74664;45.620;5.138;2024-01-15T05:28:25;5.74;70.14
84435;SHT30;74664;45.620;5.138;2024-01-15T05:30:51;5.81;70.09
84435;SHT30;74664;45.620;5.138;2024-01-15T05:33:21;5.81;70.08
84435;SHT30;74664;45.620;5.138;2024-01-15T05:35:51;5.78;70.08
84435;SHT30;74664;45.620;5.138;2024-01-15T05:38:18;5.79;70.19
84435;SHT30;74664;45.620;5.138;2024-01-15T05:40:45;5.79;70.25
84435;SHT30;74664;45.620;5.138;2024-01-15T05:43:12;5.77;70.20
84435;SHT30;74664;45.620;5.138;2024-01-15T05:45:38;5.78;70.33
84435;SHT30;74664;45.620;5.138;2024-01-15T05:48:09;5.78;70.40
84435;SHT30;74664;45.620;5.138;2024-01-15T05:50:37;5.77;70.32
84435;SHT30;74664;45.620;5.138;2024-01-15T05:53:04;5.78;70.24
84435;SHT30;74664;45.620;5.138;2024-01-15T05:55:31;5.77;70.38
84435;SHT30;74664;45.620;5.138;2024-01-15T05:57:58;5.77;70.41
84435;SHT30;74664;45.620;5.138;2024-01-15T06:00:25;5.79;70.42
84435;SHT30;74664;45.620;5.138;2024-01-15T06:02:51;5.78;70.60
84435;SHT30;74664;45.620;5.138;2024-01-15T06:05:18;5.77;70.70
84435;SHT30;74664;45.620;5.138;2024-01-15T06:07:46;5.75;70.78
84435;SHT30;74664;45.620;5.138;2024-01-15T06:10:13;5.78;70.88
84435;SHT30;74664;45.620;5.138;2024-01-15T06:12:43;5.78;70.91
84435;SHT30;74664;45.620;5.138;2024-01-15T06:15:10;5.79;70.90
84435;SHT30;74664;45.620;5.138;2024-01-15T06:17:37;5.79;71.00
84435;SHT30;74664;45.620;5.138;2024-01-15T06:20:05;5.79;70.81
84435;SHT30;74664;45.620;5.138;2024-01-15T06:22:55;5.75;70.85
84435;SHT30;74664;45.620;5.138;2024-01-15T06:25:23;5.73;71.00
84435;SHT30;74664;45.620;5.138;2024-01-15T06:27:55;5.74;71.11
84435;SHT30;74664;45.620;5.138;2024-01-15T06:30:26;5.71;71.22
84435;SHT30;74664;45.620;5.138;2024-01-15T06:33:04;5.67;71.19
84435;SHT30;74664;45.620;5.138;2024-01-15T06:35:32;5.68;71.08
84435;SHT30;74664;45.620;5.138;2024-01-15T06:38:01;5.67;71.27
84435;SHT30;74664;45.620;5.138;2024-01-15T06:40:31;5.63;71.39
84435;SHT30;74664;45.620;5.138;2024-01-15T06:43:01;5.64;71.41
84435;SHT30;74664;45.620;5.138;2024-01-15T06:45:28;5.66;71.16
84435;SHT30;74664;45.620;5.138;2024-01-15T06:47:54;5.66;71.36
84435;SHT30;74664;45.620;5.138;2024-01-15T06:50:21;5.61;71.42
84435;SHT30;74664;45.620;5.138;2024-01-15T06:52:49;5.63;71.41
84435;SHT30;74664;45.620;5.138;2024-01-15T06:55:17;5.60;71.56
84435;SHT30;74664;45.620;5.138;2024-01-15T06:57:44;5.63;71.67
84435;SHT30;74664;45.620;5.138;2024-01-15T07:00:14;5.58;71.63
84435;SHT30;74664;45.620;5.138;2024-01-15T07:02:41;5.56;71.64
84435;SHT30;74664;45.620;5.138;2024-01-15T07:05:08;5.57;71.92
84435;SHT30;74664;45.620;5.138;2024-01-15T07:07:35;5.58;71.98
84435;SHT30;74664;45.620;5.138;2024-01-15T07:10:02;5.54;72.09
84435;SHT30;74664;45.620;5.138;2024-01-15T07:12:30;5.56;72.02
84435;SHT30;74664;45.620;5.138;2024-01-15T07:14:58;5.57;72.17
84435;SHT30;74664;45.620;5.138;2024-01-15T07:17:24;5.56;72.15
84435;SHT30;74664;45.620;5.138;2024-01-15T07:19:51;5.58;72.20
84435;SHT30;74664;45.620;5.138;2024-01-15T07:22:18;5.58;71.98
84435;SHT30;74664;45.620;5.138;2024-01-15T07:24:45;5.60;72.03
84435;SHT30;74664;45.620;5.138;2024-01-15T07:27:12;5.60;72.14
84435;SHT30;74664;45.620;5.138;2024-01-15T07:29:40;5.58;72.21
84435;SHT30;74664;45.620;5.138;2024-01-15T07:32:08;5.56;72.25
84435;SHT30;74664;45.620;5.138;2024-01-15T07:34:35;5.53;72.54
84435;SHT30;74664;45.620;5.138;2024-01-15T07:37:03;5.56;72.63
84435;SHT30;74664;45.620;5.138;2024-01-15T07:39:29;5.56;72.59
84435;SHT30;74664;45.620;5.138;2024-01-15T07:41:56;5.56;72.70
84435;SHT30;74664;45.620;5.138;2024-01-15T07:44:24;5.57;72.68
84435;SHT30;74664;45.620;5.138;2024-01-15T07:46:52;5.63;72.67
84435;SHT30;74664;45.620;5.138;2024-01-15T07:49:19;5.61;72.75
84435;SHT30;74664;45.620;5.138;2024-01-15T07:51:45;5.64;72.63
84435;SHT30;74664;45.620;5.138;2024-01-15T07:54:12;5.67;72.61
84435;SHT30;74664;45.620;5.138;2024-01-15T07:56:53;5.70;72.67
84435;SHT30;74664;45.620;5.138;2024-01-15T07:59:20;5.74;72.63
84435;SHT30;74664;45.620;5.138;2024-01-15T08:01:47;5.75;72.62
84435;SHT30;74664;45.620;5.138;2024-01-15T08:04:15;5.78;72.54
84435;SHT30;74664;45.620;5.138;2024-01-15T08:06:42;5.79;72.52
84435;SHT30;74664;45.620;5.138;2024-01-15T08:09:08;5.84;72.55
84435;SHT30;74664;45.620;5.138;2024-01-15T08:11:35;5.81;72.51
84435;SHT30;74664;45.620;5.138;2024-01-15T08:14:02;5.84;72.51
84435;SHT30;74664;45.620;5.138;2024-01-15T08:16:29;5.81;72.50
84435;SHT30;74664;45.620;5.138;2024-01-15T08:18:55;5.84;72.22
84435;SHT30;74664;45.620;5.138;2024-01-15T08:21:24;5.81;72.59
84435;SHT30;74664;45.620;5.138;2024-01-15T08:23:50;5.77;72.54
84435;SHT30;74664;45.620;5.138;2024-01-15T08:26:17;5.74;72.67
84435;SHT30;74664;45.620;5.138;2024-01-15T08:28:44;5.73;72.81
84435;SHT30;74664;45.620;5.138;2024-01-15T08:31:10;5.73;72.86
84435;SHT30;74664;45.620;5.138;2024-01-15T08:33:37;5.74;72.91
84435;SHT30;74664;45.620;5.138;2024-01-15T08:36:04;5.73;72.83
84435;SHT30;74664;45.620;5.138;2024-01-15T08:38:32;5.78;72.74
84435;SHT30;74664;45.620;5.138;2024-01-15T08:40:59;5.81;72.73
84435;SHT30;74664;45.620;5.138;2024-01-15T08:43:26;5.85;72.52
84435;SHT30;74664;45.620;5.138;2024-01-15T08:45:52;5.88;72.55
84435;SHT30;74664;45.620;5.138;2024-01-15T08:48:19;5.90;72.73
84435;SHT30;74664;45.620;5.138;2024-01-15T08:50:46;5.93;72.66
84435;SHT30;74664;45.620;5.138;2024-01-15T08:53:12;5.95;72.91
84435;SHT30;74664;45.620;5.138;2024-01-15T08:55:41;5.93;72.76
84435;SHT30;74664;45.620;5.138;2024-01-15T08:58:09;5.90;72.85
84435;SHT30;74664;45.620;5.138;2024-01-15T09:00:36;5.90;73.03
84435;SHT30;74664;45.620;5.138;2024-01-15T09:03:03;5.88;73.08
84435;SHT30;74664;45.620;5.138;2024-01-15T09:05:30;5.90;73.13
84435;SHT30;74664;45.620;5.138;2024-01-15T09:07:56;5.94;73.19
84435;SHT30;74664;45.620;5.138;2024-01-15T09:10:23;5.95;73.02
84435;SHT30;74664;45.620;5.138;2024-01-15T09:12:52;5.95;73.26
84435;SHT30;74664;45.620;5.138;2024-01-15T09:15:18;5.97;73.17
84435;SHT30;74664;45.620;5.138;2024-01-15T09:17:45;5.95;73.25
84435;SHT30;74664;45.620;5.138;2024-01-15T09:20:12;5.95;73.12
84435;SHT30;74664;45.620;5.138;2024-01-15T09:22:39;5.94;73.17
84435;SHT30;74664;45.620;5.138;2024-01-15T09:25:07;5.91;73.14
84435;SHT30;74664;45.620;5.138;2024-01-15T09:27:34;5.90;73.32
84435;SHT30;74664;45.620;5.138;2024-01-15T09:30:03;5.93;73.28
84435;SHT30;74664;45.620;5.138;2024-01-15T09:32:30;5.91;73.42
84435;SHT30;74664;45.620;5.138;2024-01-15T09:35:00;5.91;73.40
84435;SHT30;74664;45.620;5.138;2024-01-15T09:37:27;5.91;73.32
84435;SHT30;74664;45.620;5.138;2024-01-15T09:39:54;5.93;73.43
84435;SHT30;74664;45.620;5.138;2024-01-15T09:42:23;5.93;73.55
84435;SHT30;74664;45.620;5.138;2024-01-15T09:44:52;5.95;73.54
84435;SHT30;74664;45.620;5.138;2024-01-15T09:47:20;5.98;73.58
84435;SHT30;74664;45.620;5.138;2024-01-15T09:49:49;6.02;73.42
84435;SHT30;74664;45.620;5.138;2024-01-15T09:52:18;6.04;73.36
84435;SHT30;74664;45.620;5.138;2024-01-15T09:54:46;6.06;73.56
84435;SHT30;74664;45.620;5.138;2024-01-15T09:57:13;6.08;73.56
84435;SHT30;74664;45.620;5.138;2024-01-15T09:59:42;6.11;73.66
84435;SHT30;74664;45.620;5.138;2024-01-15T10:02:12;6.15;73.68
84435;SHT30;74664;45.620;5.138;2024-01-15T10:04:44;6.22;73.57
84435;SHT30;74664;45.620;5.138;2024-01-15T10:07:14;6.26;73.41
84435;SHT30;74664;45.620;5.138;2024-01-15T10:09:41;6.29;73.14
84435;SHT30;74664;45.620;5.138;2024-01-15T10:12:09;6.29;73.17
84435;SHT30;74664;45.620;5.138;2024-01-15T10:14:36;6.33;73.13
84435;SHT30;74664;45.620;5.138;2024-01-15T10:17:12;6.42;73.14
84435;SHT30;74664;45.620;5.138;2024-01-15T10:19:38;6.46;72.97
84435;SHT30;74664;45.620;5.138;2024-01-15T10:22:08;6.46;73.06
84435;SHT30;74664;45.620;5.138;2024-01-15T10:24:36;6.47;73.12
84435;SHT30;74664;45.620;5.138;2024-01-15T10:27:05;6.52;73.13
84435;SHT30;74664;45.620;5.138;2024-01-15T10:29:33;6.54;72.78
84435;SHT30;74664;45.620;5.138;2024-01-15T10:32:00;6.56;72.95
84435;SHT30;74664;45.620;5.138;2024-01-15T10:34:27;6.49;72.73
84435;SHT30;74664;45.620;5.138;2024-01-15T10:36:54;6.46;72.81
84435;SHT30;74664;45.620;5.138;2024-01-15T10:39:23;6.46;73.13
84435;SHT30;74664;45.620;5.138;2024-01-15T10:41:50;6.49;73.30
84435;SHT30;74664;45.620;5.138;2024-01-15T10:44:17;6.54;73.11
84435;SHT30;74664;45.620;5.138;2024-01-15T10:46:45;6.56;73.17
84435;SHT30;74664;45.620;5.138;2024-01-15T10:49:12;6.57;73.09
84435;SHT30;74664;45.620;5.138;2024-01-15T10:51:39;6.62;73.32
84435;SHT30;74664;45.620;5.138;2024-01-15T10:54:09;6.62;73.24
84435;SHT30;74664;45.620;5.138;2024-01-15T10:56:39;6.63;73.24
84435;SHT30;74664;45.620;5.138;2024-01-15T10:59:06;6.66;73.21
84435;SHT30;74664;45.620;5.138;2024-01-15T11:01:36;6.67;73.07
84435;SHT30;74664;45.620;5.138;2024-01-15T11:04:03;6.67;72.94
84435;SHT30;74664;45.620;5.138;2024-01-15T11:06:41;6.67;73.15
84435;SHT30;74664;45.620;5.138;2024-01-15T11:09:08;6.67;73.14
84435;SHT30;74664;45.620;5.138;2024-01-15T11:11:43;6.66;73.13
84435;SHT30;74664;45.620;5.138;2024-01-15T11:14:34;6.69;73.08
84435;SHT30;74664;45.620;5.138;2024-01-15T11:17:01;6.67;72.99
84435;SHT30;74664;45.620;5.138;2024-01-15T11:19:35;6.67;72.95
84435;SHT30;74664;45.620;5.138;2024-01-15T11:22:03;6.60;73.14
84435;SHT30;74664;45.620;5.138;2024-01-15T11:24:35;6.58;72.83
84435;SHT30;74664;45.620;5.138;2024-01-15T11:27:04;6.56;72.99
84435;SHT30;74664;45.620;5.138;2024-01-15T11:29:33;6.50;73.25
84435;SHT30;74664;45.620;5.138;2024-01-15T11:32:02;6.50;72.99
84435;SHT30;74664;45.620;5.138;2024-01-15T11:34:52;6.50;73.42
84435;SHT30;74664;45.620;5.138;2024-01-15T11:37:19;6.49;73.47
84435;SHT30;74664;45.620;5.138;2024-01-15T11:39:46;6.49;73.51
84435;SHT30;74664;45.620;5.138;2024-01-15T11:42:14;6.49;73.53
84435;SHT30;74664;45.620;5.138;2024-01-15T11:44:42;6.52;73.57
84435;SHT30;74664;45.620;5.138;2024-01-15T11:47:10;6.52;73.81
84435;SHT30;74664;45.620;5.138;2024-01-15T11:50:01;6.49;73.83
84435;SHT30;74664;45.620;5.138;2024-01-15T11:52:32;6.47;73.78
84435;SHT30;74664;45.620;5.138;2024-01-15T11:55:11;6.50;73.92
84435;SHT30;74664;45.620;5.138;2024-01-15T11:57:45;6.49;73.79
84435;SHT30;74664;45.620;5.138;2024-01-15T12:00:14;6.50;73.74
84435;SHT30;74664;45.620;5.138;2024-01-15T12:02:41;6.49;73.87
84435;SHT30;74664;45.620;5.138;2024-01-15T12:05:08;6.52;73.70
84435;SHT30;74664;45.620;5.138;2024-01-15T12:07:35;6.52;73.91
84435;SHT30;74664;45.620;5.138;2024-01-15T12:10:02;6.53;74.01
84435;SHT30;74664;45.620;5.138;2024-01-15T12:12:37;6.54;74.09
84435;SHT30;74664;45.620;5.138;2024-01-15T12:15:07;6.56;73.88
84435;SHT30;74664;45.620;5.138;2024-01-15T12:17:34;6.62;73.97
84435;SHT30;74664;45.620;5.138;2024-01-15T12:20:02;6.65;73.64
84435;SHT30;74664;45.620;5.138;2024-01-15T12:22:28;6.66;73.61
84435;SHT30;74664;45.620;5.138;2024-01-15T12:25:04;6.62;73.91
84435;SHT30;74664;45.620;5.138;2024-01-15T12:27:31;6.60;73.87
84435;SHT30;74664;45.620;5.138;2024-01-15T12:29:58;6.62;73.86
84435;SHT30;74664;45.620;5.138;2024-01-15T12:32:26;6.66;73.79
84435;SHT30;74664;45.620;5.138;2024-01-15T12:34:53;6.69;73.74
84435;SHT30;74664;45.620;5.138;2024-01-15T12:37:20;6.67;73.91
84435;SHT30;74664;45.620;5.138;2024-01-15T12:39:49;6.69;73.82
84435;SHT30;74664;45.620;5.138;2024-01-15T12:42:16;6.69;73.94
84435;SHT30;74664;45.620;5.138;2024-01-15T12:44:44;6.69;74.01
84435;SHT30;74664;45.620;5.138;2024-01-15T12:47:12;6.67;74.09
84435;SHT30;74664;45.620;5.138;2024-01-15T12:49:41;6.69;73.78
84435;SHT30;74664;45.620;5.138;2024-01-15T12:52:09;6.63;74.08
84435;SHT30;74664;45.620;5.138;2024-01-15T12:54:37;6.62;74.15
84435;SHT30;74664;45.620;5.138;2024-01-15T12:57:03;6.62;73.93
84435;SHT30;74664;45.620;5.138;2024-01-15T12:59:30;6.62;73.98
84435;SHT30;74664;45.620;5.138;2024-01-15T13:01:57;6.60;73.96
84435;SHT30;74664;45.620;5.138;2024-01-15T13:04:26;6.57;74.15
84435;SHT30;74664;45.620;5.138;2024-01-15T13:06:54;6.56;74.46
84435;SHT30;74664;45.620;5.138;2024-01-15T13:09:21;6.60;74.54
84435;SHT30;74664;45.620;5.138;2024-01-15T13:11:48;6.63;74.09
84435;SHT30;74664;45.620;5.138;2024-01-15T13:14:15;6.65;74.35
84435;SHT30;74664;45.620;5.138;2024-01-15T13:16:41;6.66;74.24
84435;SHT30;74664;45.620;5.138;2024-01-15T13:19:09;6.72;73.94
84435;SHT30;74664;45.620;5.138;2024-01-15T13:21:38;6.74;74.22
84435;SHT30;74664;45.620;5.138;2024-01-15T13:24:07;6.76;74.38
84435;SHT30;74664;45.620;5.138;2024-01-15T13:26:34;6.74;74.21
84435;SHT30;74664;45.620;5.138;2024-01-15T13:29:02;6.74;74.07
84435;SHT30;74664;45.620;5.138;2024-01-15T13:31:30;6.76;74.38
84435;SHT30;74664;45.620;5.138;2024-01-15T13:33:57;6.77;74.30
84435;SHT30;74664;45.620;5.138;2024-01-15T13:36:26;6.83;74.35
84435;SHT30;74664;45.620;5.138;2024-01-15T13:38:53;6.83;74.43
84435;SHT30;74664;45.620;5.138;2024-01-15T13:41:21;6.90;74.24
84435;SHT30;74664;45.620;5.138;2024-01-15T13:43:53;6.90;74.06
84435;SHT30;74664;45.620;5.138;2024-01-15T13:46:20;6.87;74.22
84435;SHT30;74664;45.620;5.138;2024-01-15T13:48:47;6.88;74.07
84435;SHT30;74664;45.620;5.138;2024-01-15T13:51:14;6.93;74.23
84435;SHT30;74664;45.620;5.138;2024-01-15T13:53:40;6.94;74.15
84435;SHT30;74664;45.620;5.138;2024-01-15T13:56:08;6.95;74.26
84435;SHT30;74664;45.620;5.138;2024-01-15T13:58:37;6.97;74.17
84435;SHT30;74664;45.620;5.138;2024-01-15T14:01:04;6.97;73.95
84435;SHT30;74664;45.620;5.138;2024-01-15T14:03:31;6.93;74.17
84435;SHT30;74664;45.620;5.138;2024-01-15T14:06:00;6.88;74.29
84435;SHT30;74664;45.620;5.138;2024-01-15T14:08:29;6.93;74.45
84435;SHT30;74664;45.620;5.138;2024-01-15T14:10:56;6.94;74.30
84435;SHT30;74664;45.620;5.138;2024-01-15T14:13:23;6.97;74.33
84435;SHT30;74664;45.620;5.138;2024-01-15T14:15:54;6.97;74.22
84435;SHT30;74664;45.620;5.138;2024-01-15T14:18:21;6.95;74.37
84435;SHT30;74664;45.620;5.138;2024-01-15T14:20:48;6.95;74.38
84435;SHT30;74664;45.620;5.138;2024-01-15T14:23:14;6.95;74.47
84435;SHT30;74664;45.620;5.138;2024-01-15T14:25:41;6.95;74.48
84435;SHT30;74664;45.620;5.138;2024-01-15T14:28:08;6.95;74.24
84435;SHT30;74664;45.620;5.138;2024-01-15T14:30:34;6.95;74.36
84435;SHT30;74664;45.620;5.138;2024-01-15T14:33:03;6.95;74.51
84435;SHT30;74664;45.620;5.138;2024-01-15T14:35:29;6.95;74.31
84435;SHT30;74664;45.620;5.138;2024-01-15T14:37:56;6.97;74.34
84435;SHT30;74664;45.620;5.138;2024-01-15T14:40:24;6.95;74.45
84435;SHT30;74664;45.620;5.138;2024-01-15T14:42:51;6.97;74.41
84435;SHT30;74664;45.620;5.138;2024-01-15T14:45:18;7.00;74.25
84435;SHT30;74664;45.620;5.138;2024-01-15T14:47:48;6.95;74.19
84435;SHT30;74664;45.620;5.138;2024-01-15T14:50:16;6.93;74.36
84435;SHT30;74664;45.620;5.138;2024-01-15T14:52:43;6.90;74.57
84435;SHT30;74664;45.620;5.138;2024-01-15T14:55:11;6.87;74.43
84435;SHT30;74664;45.620;5.138;2024-01-15T14:57:38;6.81;74.33
84435;SHT30;74664;45.620;5.138;2024-01-15T15:00:06;6.79;74.48
84435;SHT30;74664;45.620;5.138;2024-01-15T15:02:35;6.76;74.71
84435;SHT30;74664;45.620;5.138;2024-01-15T15:05:03;6.70;74.63
84435;SHT30;74664;45.620;5.138;2024-01-15T15:07:31;6.69;74.60
84435;SHT30;74664;45.620;5.138;2024-01-15T15:09:58;6.63;74.59
84435;SHT30;74664;45.620;5.138;2024-01-15T15:12:28;6.56;74.98
84435;SHT30;74664;45.620;5.138;2024-01-15T15:14:55;6.54;75.41
84435;SHT30;74664;45.620;5.138;2024-01-15T15:17:22;6.50;74.99
84435;SHT30;74664;45.620;5.138;2024-01-15T15:19:49;6.49;75.23
84435;SHT30;74664;45.620;5.138;2024-01-15T15:22:18;6.43;75.43
84435;SHT30;74664;45.620;5.138;2024-01-15T15:24:47;6.42;75.25
84435;SHT30;74664;45.620;5.138;2024-01-15T15:27:13;6.42;75.70
84435;SHT30;74664;45.620;5.138;2024-01-15T15:29:40;6.37;75.57
84435;SHT30;74664;45.620;5.138;2024-01-15T15:32:07;6.33;75.88
84435;SHT30;74664;45.620;5.138;2024-01-15T15:34:33;6.33;75.99
84435;SHT30;74664;45.620;5.138;2024-01-15T15:37:00;6.36;75.88
84435;SHT30;74664;45.620;5.138;2024-01-15T15:39:27;6.33;75.72
84435;SHT30;74664;45.620;5.138;2024-01-15T15:41:57;6.32;75.79
84435;SHT30;74664;45.620;5.138;2024-01-15T15:44:24;6.26;76.04
84435;SHT30;74664;45.620;5.138;2024-01-15T15:46:50;6.28;76.15
84435;SHT30;74664;45.620;5.138;2024-01-15T15:49:17;6.25;76.65